Ana Sayfa
METAR-TAF:

METAR-TAF

Havaalanları :

Air Force Base Waterkloof

Waterkloof, Güney Afrika

Enlem: 25-50S, Boylam: 028-13E, yükseklik: 1498 m

Güncel hava durumu gözlemi

Rapor saat 00:00 UTC de 37 dakika önce yapıldı.
Rüzgar güney/güneydoğudan 3 kt
Sıcaklık 20°C
Nem 68%
Basınç 1021 hPa

METAR: FAWK 280000Z AUTO 16003KT //// // ////// 20/14 Q1021

Saat: 02:37 (00:37 UTC)

Tahmin

Rapor saat 09:00 UTC de 15 saat ve 37 dakika önce yapıldı.
Ayın 27'si saat 10 UTC'den ayın 27'si saat 18 UTC'ye kadar geçerli Tahmin
Rüzgar değişken yönden 3 kt
Görüş mesafesi 10 km veya daha fazla
1500 m altında bulut yok ve kümülonimbus yok
Dönüşüyor
ayın 27'si saat 11 UTC'den ayın 27'si saat 13 UTC'ye kadar
Rüzgar batı/kuzeybatıdan 10 kt
Olasılık 30% :
Geçici
ayın 27'si saat 12 UTC'den ayın 27'si saat 15 UTC'ye kadar
4000 ft yükseklikte az bulutlu, Yükselen kümülüs.

TAF: FAWK 270900Z 2710/2718 VRB03KT CAVOK TX30/2713Z TN25/2718Z BECMG 2711/2713 29010KT PROB30 TEMPO 2712/2715 FEW040TCU

4.000'den fazla havaalanı için hava durumu gözlemleri ve tahminleri (METAR ve TAF raporları).

Kullanılabilir istasyonlar harita üzerinde sarı ve kırmızı noktalarla gösterilir.

İstasyonun adını görmek için fareyi noktanın üzerinde gezdirin.

Sonrasında hava gözlem ve tahminlerini görmek için tıklayın.

Haritayı değiştirmek için: yaklaştırmak için siyah artı işaretli yeşil düğmeye ve uzaklaştırmak için de eksi işaretli düğmeye hızla tıklayın; bitişik haritalar için yeşil okları kullanın.


METAR-TAF: